Time;durP1;ratioP1;P1;durP2;ratioP2;P2;SDS_P1;SDS_P2;PMS_P1;PMS_P2;Temp;Humidity;BMP_temperature;BMP_pressure;BME280_temperature;BME280_humidity;BME280_pressure;Samples;Min_cycle;Max_cycle;Signal;HPM_P1;HPM_P2
2023/07/01 00:03:35;;;;;;;12.23;8.50;;;12.90;99.90;;;;;;21031345;28;20493;-54
2023/07/01 00:13:37;;;;;;;10.40;8.60;;;12.90;99.90;;;;;;21028211;28;20060;-54
2023/07/01 00:23:38;;;;;;;11.75;9.50;;;12.90;99.90;;;;;;21034649;28;20064;-44
2023/07/01 00:33:40;;;;;;;11.88;9.30;;;13.00;99.90;;;;;;21044838;28;20071;-52
2023/07/01 00:43:41;;;;;;;8.60;6.78;;;12.90;99.90;;;;;;21031386;28;20079;-45
2023/07/01 00:53:43;;;;;;;8.38;6.05;;;12.90;99.90;;;;;;21040350;28;20063;-53
2023/07/01 01:04:00;;;;;;;8.13;6.22;;;12.90;99.90;;;;;;21025238;28;20059;-51
2023/07/01 01:14:07;;;;;;;7.28;6.20;;;12.80;99.90;;;;;;21034341;28;20524;-48
2023/07/01 01:24:10;;;;;;;8.60;7.13;;;12.70;99.90;;;;;;21042315;28;20067;-49
2023/07/01 01:34:11;;;;;;;9.65;8.00;;;12.70;99.90;;;;;;21001562;28;20064;-52
2023/07/01 01:44:25;;;;;;;12.18;9.43;;;12.70;99.90;;;;;;21021605;28;20569;-49
2023/07/01 01:54:27;;;;;;;13.25;10.27;;;12.70;99.90;;;;;;21014635;28;20144;-48
2023/07/01 02:04:28;;;;;;;12.60;10.35;;;12.60;99.90;;;;;;21024327;28;20122;-46
2023/07/01 02:14:31;;;;;;;14.25;11.35;;;12.60;99.90;;;;;;21027205;28;20075;-49
2023/07/01 02:24:32;;;;;;;14.13;11.30;;;12.60;99.90;;;;;;21027981;28;20074;-48
2023/07/01 02:34:34;;;;;;;15.68;11.95;;;12.70;99.90;;;;;;21002793;28;20067;-51
2023/07/01 02:44:36;;;;;;;14.18;10.70;;;12.60;99.90;;;;;;21015749;28;20138;-48
2023/07/01 02:54:40;;;;;;;13.85;9.75;;;12.70;99.90;;;;;;20999757;28;20467;-51
2023/07/01 03:04:42;;;;;;;9.65;7.80;;;12.80;99.90;;;;;;21006887;28;20064;-43
2023/07/01 03:14:44;;;;;;;9.52;7.10;;;12.80;99.90;;;;;;20991055;28;20501;-52
2023/07/01 03:24:46;;;;;;;9.95;7.00;;;12.90;99.90;;;;;;21036394;28;20627;-45
2023/07/01 03:34:48;;;;;;;9.15;6.90;;;13.00;99.90;;;;;;21019841;28;20501;-49
2023/07/01 03:44:50;;;;;;;7.85;5.82;;;12.90;99.90;;;;;;21016441;28;20142;-49
2023/07/01 03:54:51;;;;;;;10.20;6.15;;;12.90;99.90;;;;;;21002086;28;20068;-43
2023/07/01 04:04:53;;;;;;;12.40;10.32;;;13.00;99.90;;;;;;21019957;28;20552;-51
2023/07/01 04:14:54;;;;;;;187.95;18.67;;;13.10;99.90;;;;;;21011331;28;20086;-54
2023/07/01 04:24:56;;;;;;;15.60;12.55;;;13.10;99.90;;;;;;21006207;28;20055;-54
2023/07/01 04:34:58;;;;;;;8.82;6.60;;;13.00;99.90;;;;;;21011263;28;20060;-52
2023/07/01 04:45:01;;;;;;;11.98;10.48;;;13.00;99.90;;;;;;21002709;28;20088;-51
2023/07/01 04:55:03;;;;;;;13.35;11.65;;;13.30;99.90;;;;;;21029687;28;20068;-51
2023/07/01 05:05:05;;;;;;;15.73;13.27;;;13.40;99.90;;;;;;21051149;28;20066;-49
2023/07/01 05:15:08;;;;;;;16.60;13.07;;;13.50;99.90;;;;;;21038838;28;20133;-51
2023/07/01 05:25:09;;;;;;;15.48;13.07;;;13.60;99.90;;;;;;21020794;28;20170;-51
2023/07/01 05:35:11;;;;;;;15.38;13.38;;;13.90;99.90;;;;;;21020966;28;20068;-55
2023/07/01 05:45:13;;;;;;;11.15;9.98;;;14.00;99.90;;;;;;21008949;28;20113;-53
2023/07/01 05:55:16;;;;;;;10.35;9.32;;;14.10;99.90;;;;;;21024655;28;20056;-47
2023/07/01 06:05:18;;;;;;;11.45;10.20;;;14.10;99.90;;;;;;21025854;28;20067;-52
2023/07/01 06:15:19;;;;;;;171.05;16.52;;;14.10;99.90;;;;;;21012753;28;20121;-49
2023/07/01 06:25:21;;;;;;;241.77;17.60;;;14.20;99.90;;;;;;21031064;28;20109;-52
2023/07/01 06:35:22;;;;;;;94.03;15.00;;;14.10;99.90;;;;;;21043352;28;20093;-45
2023/07/01 06:45:24;;;;;;;13.35;11.95;;;14.00;99.90;;;;;;21021237;28;20072;-50
2023/07/01 06:55:25;;;;;;;13.43;10.55;;;14.10;99.90;;;;;;21010247;28;20469;-53
2023/07/01 07:05:27;;;;;;;27.38;10.10;;;14.50;99.90;;;;;;21006957;28;20621;-44
2023/07/01 07:15:29;;;;;;;12.55;11.25;;;14.70;99.90;;;;;;21018358;28;20586;-45
2023/07/01 07:25:30;;;;;;;17.38;10.98;;;14.80;99.90;;;;;;21019858;28;20570;-51
2023/07/01 07:35:32;;;;;;;12.63;11.23;;;15.00;99.90;;;;;;21033741;28;20598;-48
2023/07/01 07:45:33;;;;;;;34.47;12.50;;;15.10;99.90;;;;;;21009351;28;20202;-51
2023/07/01 07:55:35;;;;;;;15.90;11.65;;;15.20;99.90;;;;;;21002110;28;20120;-49
2023/07/01 08:05:37;;;;;;;21.90;11.75;;;15.30;99.90;;;;;;21036640;28;20116;-53
2023/07/01 08:15:39;;;;;;;19.75;12.52;;;15.40;99.90;;;;;;21025414;28;20060;-51
2023/07/01 08:25:42;;;;;;;144.38;17.25;;;15.50;99.90;;;;;;21028699;28;20492;-50
2023/07/01 08:35:44;;;;;;;14.25;11.48;;;15.70;99.90;;;;;;21025403;28;20117;-53
2023/07/01 08:45:50;;;;;;;11.43;10.32;;;16.30;99.90;;;;;;21017978;28;20125;-49
2023/07/01 08:55:54;;;;;;;14.80;12.32;;;17.20;99.90;;;;;;21035670;28;20071;-45
2023/07/01 09:05:55;;;;;;;11.93;10.82;;;17.40;99.90;;;;;;21032260;28;20060;-54
2023/07/01 09:15:57;;;;;;;12.40;11.10;;;17.00;99.90;;;;;;21036001;28;20686;-50
2023/07/01 09:26:17;;;;;;;11.10;10.10;;;17.20;99.90;;;;;;21030754;28;20060;-46
2023/07/01 09:36:25;;;;;;;11.10;10.00;;;17.70;99.90;;;;;;21013533;28;20079;-54
2023/07/01 09:46:46;;;;;;;8.97;8.07;;;18.00;99.90;;;;;;21041306;28;20134;-47
2023/07/01 09:56:48;;;;;;;10.82;9.73;;;18.60;99.90;;;;;;21017793;28;20087;-54
2023/07/01 10:06:50;;;;;;;8.50;7.68;;;18.50;99.90;;;;;;21017091;28;20067;-55
2023/07/01 10:16:51;;;;;;;9.75;8.85;;;19.10;99.90;;;;;;21011502;28;20068;-53
2023/07/01 10:26:53;;;;;;;8.88;8.07;;;20.00;99.90;;;;;;21018277;28;20115;-49
2023/07/01 10:37:13;;;;;;;8.73;7.93;;;20.00;99.90;;;;;;21032384;28;20148;-54
2023/07/01 10:47:15;;;;;;;8.85;7.95;;;20.40;99.90;;;;;;21044158;28;20076;-54
2023/07/01 10:57:18;;;;;;;6.68;6.03;;;20.50;99.90;;;;;;21015253;28;20560;-47
2023/07/01 11:07:27;;;;;;;7.72;7.03;;;21.70;99.90;;;;;;21032910;28;20063;-54
2023/07/01 11:17:29;;;;;;;7.38;6.68;;;21.60;99.90;;;;;;21037842;28;20383;-53
2023/07/01 11:27:31;;;;;;;9.35;8.45;;;22.50;99.90;;;;;;21022270;28;20064;-54
2023/07/01 11:37:32;;;;;;;7.57;6.88;;;21.90;99.90;;;;;;21004972;28;20476;-45
2023/07/01 11:47:34;;;;;;;6.15;5.63;;;20.60;99.90;;;;;;21014641;28;20134;-54
2023/07/01 11:57:36;;;;;;;8.05;7.25;;;20.90;99.90;;;;;;20999791;28;20174;-50
2023/07/01 12:07:54;;;;;;;12.70;11.50;;;23.20;99.90;;;;;;21034257;28;20102;-54
2023/07/01 12:18:19;;;;;;;12.13;10.95;;;23.40;99.90;;;;;;21037699;28;20068;-55
2023/07/01 12:28:21;;;;;;;13.18;11.65;;;21.30;99.90;;;;;;21034738;28;20051;-51
2023/07/01 12:38:23;;;;;;;9.23;8.43;;;22.30;99.90;;;;;;21027279;28;20493;-57
2023/07/01 12:48:26;;;;;;;7.95;7.18;;;24.10;99.90;;;;;;21036969;28;20194;-56
2023/07/01 12:58:28;;;;;;;8.90;8.00;;;24.20;99.90;;;;;;21028599;28;20068;-52
2023/07/01 13:08:31;;;;;;;13.05;10.25;;;23.10;99.90;;;;;;21009370;28;20131;-54
2023/07/01 13:18:32;;;;;;;12.32;11.20;;;21.60;99.90;;;;;;21011618;28;20070;-53
2023/07/01 13:28:34;;;;;;;12.50;11.40;;;20.40;99.90;;;;;;21045284;28;20063;-53
2023/07/01 13:38:38;;;;;;;14.02;12.63;;;20.10;99.90;;;;;;21021178;28;20068;-53
2023/07/01 13:48:42;;;;;;;14.63;13.18;;;19.60;99.90;;;;;;21016946;28;20088;-46
2023/07/01 13:58:48;;;;;;;14.63;13.20;;;19.40;99.90;;;;;;21019996;28;20652;-52
2023/07/01 14:08:50;;;;;;;13.35;11.95;;;19.50;99.90;;;;;;21034948;28;20213;-51
2023/07/01 14:18:52;;;;;;;11.88;9.98;;;20.50;99.90;;;;;;21013151;28;20129;-49
2023/07/01 14:29:00;;;;;;;8.85;7.95;;;21.70;99.90;;;;;;21014018;28;20450;-55
2023/07/01 14:39:02;;;;;;;8.63;7.60;;;21.10;99.90;;;;;;21025068;28;20556;-53
2023/07/01 14:49:04;;;;;;;16.15;14.55;;;20.00;99.90;;;;;;21031498;28;20843;-50
2023/07/01 14:59:06;;;;;;;15.93;14.32;;;19.40;99.90;;;;;;21018292;28;20067;-52
2023/07/01 15:09:08;;;;;;;18.02;16.17;;;18.60;99.90;;;;;;20998999;28;20312;-50
2023/07/01 15:19:10;;;;;;;18.88;16.98;;;17.90;99.90;;;;;;21024949;28;20102;-50
2023/07/01 15:29:11;;;;;;;19.88;17.77;;;17.50;99.90;;;;;;21011410;28;20076;-45
2023/07/01 15:39:13;;;;;;;17.80;15.98;;;17.30;99.90;;;;;;21021806;28;20434;-48
2023/07/01 15:49:14;;;;;;;18.98;17.08;;;17.30;99.90;;;;;;21039816;28;20145;-51
2023/07/01 15:59:16;;;;;;;17.80;16.05;;;17.50;99.90;;;;;;21024828;28;20128;-53
2023/07/01 16:09:40;;;;;;;19.63;17.63;;;17.60;99.90;;;;;;21015992;28;20131;-50
2023/07/01 16:19:43;;;;;;;22.63;20.02;;;17.50;99.90;;;;;;21018626;28;20068;-49
2023/07/01 16:29:46;;;;;;;18.05;16.23;;;17.40;99.90;;;;;;21013888;28;20149;-53
2023/07/01 16:39:50;;;;;;;18.58;16.67;;;17.90;99.90;;;;;;21024054;28;20516;-50
2023/07/01 16:49:58;;;;;;;21.63;19.20;;;18.30;99.90;;;;;;21011240;28;20529;-51
2023/07/01 16:59:59;;;;;;;23.15;20.73;;;17.70;99.90;;;;;;21014348;28;20068;-50
2023/07/01 17:10:04;;;;;;;20.58;18.38;;;17.50;99.90;;;;;;21012867;28;20124;-48
2023/07/01 17:20:08;;;;;;;20.33;18.15;;;17.50;99.90;;;;;;21013740;28;20071;-50
2023/07/01 17:30:10;;;;;;;22.70;20.30;;;17.70;99.90;;;;;;21001318;28;20091;-49
2023/07/01 17:40:14;;;;;;;27.10;24.25;;;17.40;99.90;;;;;;20988488;28;20084;-50
2023/07/01 17:50:16;;;;;;;30.15;27.05;;;17.00;99.90;;;;;;21050111;28;20152;-48
2023/07/01 18:00:17;;;;;;;30.50;27.38;;;16.80;99.90;;;;;;21041164;28;20465;-53
2023/07/01 18:10:19;;;;;;;33.55;29.15;;;16.60;99.90;;;;;;21057704;28;20488;-52
2023/07/01 18:20:20;;;;;;;34.55;29.88;;;16.50;99.90;;;;;;21053075;28;20138;-50
2023/07/01 18:30:22;;;;;;;39.20;33.13;;;16.50;99.90;;;;;;21052771;28;20158;-49
2023/07/01 18:40:23;;;;;;;38.45;32.63;;;16.40;99.90;;;;;;21037523;28;20157;-53
2023/07/01 18:50:25;;;;;;;33.13;29.52;;;16.20;99.90;;;;;;21038898;28;20502;-49
2023/07/01 19:00:27;;;;;;;33.80;29.40;;;16.10;99.90;;;;;;21030742;28;20102;-51
2023/07/01 19:10:28;;;;;;;35.33;30.23;;;15.80;99.90;;;;;;21010922;28;20087;-50
2023/07/01 19:20:43;;;;;;;34.40;29.05;;;15.80;99.90;;;;;;21041852;28;20072;-46
2023/07/01 19:30:45;;;;;;;50.22;40.78;;;15.80;99.90;;;;;;21021605;28;20060;-45
2023/07/01 19:40:48;;;;;;;52.90;41.88;;;15.90;99.90;;;;;;21021517;28;20076;-49
2023/07/01 19:50:49;;;;;;;50.30;41.72;;;15.90;99.90;;;;;;21014844;28;20093;-49
2023/07/01 20:00:51;;;;;;;43.92;36.75;;;16.00;99.90;;;;;;21011739;28;20132;-52
2023/07/01 20:10:53;;;;;;;34.22;30.00;;;16.00;99.90;;;;;;21009331;28;20060;-47
2023/07/01 20:20:55;;;;;;;33.03;29.42;;;16.00;99.90;;;;;;21001290;28;20511;-50
2023/07/01 20:30:56;;;;;;;38.67;32.10;;;16.00;99.90;;;;;;21025461;28;20129;-50
2023/07/01 20:40:58;;;;;;;44.17;37.10;;;15.90;99.90;;;;;;21024342;28;20579;-54
2023/07/01 20:51:02;;;;;;;44.40;36.95;;;15.90;99.90;;;;;;20996633;28;20123;-45
2023/07/01 21:01:03;;;;;;;48.10;40.78;;;16.00;99.90;;;;;;21019737;28;20113;-47
2023/07/01 21:11:05;;;;;;;51.58;42.38;;;16.10;99.90;;;;;;21020938;28;20133;-54
2023/07/01 21:21:09;;;;;;;50.90;41.05;;;16.00;99.90;;;;;;20996056;28;20105;-51
2023/07/01 21:31:11;;;;;;;49.60;40.42;;;15.90;99.90;;;;;;20982239;28;20067;-47
2023/07/01 21:41:13;;;;;;;46.90;38.13;;;15.70;99.90;;;;;;20991220;28;20125;-49
2023/07/01 21:51:14;;;;;;;41.92;36.00;;;15.60;99.90;;;;;;21005965;28;20442;-45
2023/07/01 22:01:24;;;;;;;46.50;38.05;;;15.40;99.90;;;;;;20997953;28;20068;-48
2023/07/01 22:11:26;;;;;;;52.75;41.67;;;15.20;99.90;;;;;;21000936;28;20095;-49
2023/07/01 22:21:29;;;;;;;64.43;46.25;;;15.10;99.90;;;;;;21006668;28;20113;-48
2023/07/01 22:31:31;;;;;;;54.25;40.25;;;14.90;99.90;;;;;;21013324;28;20437;-45
2023/07/01 22:41:33;;;;;;;61.45;44.88;;;14.60;99.90;;;;;;21023901;28;20079;-45
2023/07/01 22:51:34;;;;;;;55.80;40.80;;;14.30;99.90;;;;;;21045784;28;20063;-44
2023/07/01 23:01:36;;;;;;;95.97;55.95;;;13.90;99.90;;;;;;21028178;28;20113;-49
2023/07/01 23:11:39;;;;;;;82.30;51.90;;;13.60;99.90;;;;;;21052526;28;20064;-49
2023/07/01 23:21:40;;;;;;;100.32;58.75;;;13.40;99.90;;;;;;21048967;28;20071;-51
2023/07/01 23:31:42;;;;;;;88.63;52.30;;;13.30;99.90;;;;;;21033445;28;20193;-48
2023/07/01 23:41:44;;;;;;;66.45;42.55;;;13.30;99.90;;;;;;21050184;28;20094;-44
2023/07/01 23:51:45;;;;;;;80.13;47.13;;;13.10;99.90;;;;;;21040576;28;20063;-51
